sensor_id;sensor_type;location;lat;lon;timestamp;P1;durP1;ratioP1;P2;durP2;ratioP2
6280;SDS011;3173;48.204;11.612;2023-12-07T00:01:29;13.43;;;8.67;;
6280;SDS011;3173;48.204;11.612;2023-12-07T00:03:55;16.20;;;9.70;;
6280;SDS011;3173;48.204;11.612;2023-12-07T00:06:21;13.90;;;8.70;;
6280;SDS011;3173;48.204;11.612;2023-12-07T00:08:47;13.80;;;9.00;;
6280;SDS011;3173;48.204;11.612;2023-12-07T00:11:13;16.37;;;9.50;;
6280;SDS011;3173;48.204;11.612;2023-12-07T00:13:40;16.80;;;9.00;;
6280;SDS011;3173;48.204;11.612;2023-12-07T00:16:06;18.23;;;10.97;;
6280;SDS011;3173;48.204;11.612;2023-12-07T00:18:32;14.37;;;9.00;;
6280;SDS011;3173;48.204;11.612;2023-12-07T00:20:58;15.20;;;9.53;;
6280;SDS011;3173;48.204;11.612;2023-12-07T00:23:24;16.10;;;9.83;;
6280;SDS011;3173;48.204;11.612;2023-12-07T00:25:50;15.97;;;10.53;;
6280;SDS011;3173;48.204;11.612;2023-12-07T00:28:16;16.30;;;10.10;;
6280;SDS011;3173;48.204;11.612;2023-12-07T00:30:42;13.93;;;9.67;;
6280;SDS011;3173;48.204;11.612;2023-12-07T00:33:09;17.43;;;11.50;;
6280;SDS011;3173;48.204;11.612;2023-12-07T00:35:35;17.20;;;10.10;;
6280;SDS011;3173;48.204;11.612;2023-12-07T00:38:01;17.90;;;11.60;;
6280;SDS011;3173;48.204;11.612;2023-12-07T00:40:27;16.07;;;11.20;;
6280;SDS011;3173;48.204;11.612;2023-12-07T00:42:53;15.30;;;11.00;;
6280;SDS011;3173;48.204;11.612;2023-12-07T00:45:20;16.43;;;10.60;;
6280;SDS011;3173;48.204;11.612;2023-12-07T00:47:46;17.20;;;10.70;;
6280;SDS011;3173;48.204;11.612;2023-12-07T00:50:12;19.30;;;11.63;;
6280;SDS011;3173;48.204;11.612;2023-12-07T00:52:39;16.90;;;10.70;;
6280;SDS011;3173;48.204;11.612;2023-12-07T00:55:05;16.07;;;11.00;;
6280;SDS011;3173;48.204;11.612;2023-12-07T00:57:32;17.10;;;10.67;;
6280;SDS011;3173;48.204;11.612;2023-12-07T00:59:58;18.07;;;11.80;;
6280;SDS011;3173;48.204;11.612;2023-12-07T01:02:24;18.10;;;11.27;;
6280;SDS011;3173;48.204;11.612;2023-12-07T01:04:50;16.90;;;11.27;;
6280;SDS011;3173;48.204;11.612;2023-12-07T01:07:16;22.00;;;11.20;;
6280;SDS011;3173;48.204;11.612;2023-12-07T01:09:42;19.10;;;10.93;;
6280;SDS011;3173;48.204;11.612;2023-12-07T01:12:08;19.00;;;11.63;;
6280;SDS011;3173;48.204;11.612;2023-12-07T01:14:34;20.43;;;11.63;;
6280;SDS011;3173;48.204;11.612;2023-12-07T01:17:00;22.17;;;12.37;;
6280;SDS011;3173;48.204;11.612;2023-12-07T01:19:27;18.07;;;11.27;;
6280;SDS011;3173;48.204;11.612;2023-12-07T01:21:53;18.20;;;11.20;;
6280;SDS011;3173;48.204;11.612;2023-12-07T01:24:19;21.37;;;12.03;;
6280;SDS011;3173;48.204;11.612;2023-12-07T01:26:45;18.87;;;11.33;;
6280;SDS011;3173;48.204;11.612;2023-12-07T01:29:12;19.20;;;12.20;;
6280;SDS011;3173;48.204;11.612;2023-12-07T01:31:39;20.50;;;12.90;;
6280;SDS011;3173;48.204;11.612;2023-12-07T01:34:05;18.17;;;12.10;;
6280;SDS011;3173;48.204;11.612;2023-12-07T01:36:31;19.27;;;12.50;;
6280;SDS011;3173;48.204;11.612;2023-12-07T01:38:58;17.90;;;11.70;;
6280;SDS011;3173;48.204;11.612;2023-12-07T01:41:25;21.83;;;12.77;;
6280;SDS011;3173;48.204;11.612;2023-12-07T01:43:51;21.37;;;12.27;;
6280;SDS011;3173;48.204;11.612;2023-12-07T01:46:17;18.07;;;11.63;;
6280;SDS011;3173;48.204;11.612;2023-12-07T01:48:43;18.27;;;11.57;;
6280;SDS011;3173;48.204;11.612;2023-12-07T01:51:13;21.25;;;13.07;;
6280;SDS011;3173;48.204;11.612;2023-12-07T01:53:40;21.07;;;12.13;;
6280;SDS011;3173;48.204;11.612;2023-12-07T01:56:06;24.20;;;12.20;;
6280;SDS011;3173;48.204;11.612;2023-12-07T01:58:34;21.53;;;12.20;;
6280;SDS011;3173;48.204;11.612;2023-12-07T02:01:01;20.57;;;12.83;;
6280;SDS011;3173;48.204;11.612;2023-12-07T02:03:27;20.10;;;12.00;;
6280;SDS011;3173;48.204;11.612;2023-12-07T02:05:55;19.92;;;12.52;;
6280;SDS011;3173;48.204;11.612;2023-12-07T02:08:22;21.42;;;14.05;;
6280;SDS011;3173;48.204;11.612;2023-12-07T02:10:48;23.70;;;13.27;;
6280;SDS011;3173;48.204;11.612;2023-12-07T02:13:14;22.33;;;13.43;;
6280;SDS011;3173;48.204;11.612;2023-12-07T02:15:40;21.70;;;13.07;;
6280;SDS011;3173;48.204;11.612;2023-12-07T02:23:18;20.55;;;13.02;;
6280;SDS011;3173;48.204;11.612;2023-12-07T02:25:51;23.53;;;12.67;;
6280;SDS011;3173;48.204;11.612;2023-12-07T02:28:17;19.95;;;13.15;;
6280;SDS011;3173;48.204;11.612;2023-12-07T02:30:44;23.95;;;12.55;;
6280;SDS011;3173;48.204;11.612;2023-12-07T02:33:10;20.67;;;12.93;;
6280;SDS011;3173;48.204;11.612;2023-12-07T02:35:37;21.73;;;12.20;;
6280;SDS011;3173;48.204;11.612;2023-12-07T02:38:03;19.60;;;12.52;;
6280;SDS011;3173;48.204;11.612;2023-12-07T02:40:31;19.35;;;12.43;;
6280;SDS011;3173;48.204;11.612;2023-12-07T02:42:57;17.48;;;11.80;;
6280;SDS011;3173;48.204;11.612;2023-12-07T02:45:24;18.20;;;11.38;;
6280;SDS011;3173;48.204;11.612;2023-12-07T02:47:51;20.50;;;11.63;;
6280;SDS011;3173;48.204;11.612;2023-12-07T02:50:17;17.95;;;11.38;;
6280;SDS011;3173;48.204;11.612;2023-12-07T02:52:43;18.83;;;11.47;;
6280;SDS011;3173;48.204;11.612;2023-12-07T02:55:10;20.05;;;12.40;;
6280;SDS011;3173;48.204;11.612;2023-12-07T02:57:36;19.65;;;10.68;;
6280;SDS011;3173;48.204;11.612;2023-12-07T03:00:03;19.20;;;11.40;;
6280;SDS011;3173;48.204;11.612;2023-12-07T03:02:35;16.15;;;10.15;;
6280;SDS011;3173;48.204;11.612;2023-12-07T03:05:02;14.80;;;8.95;;
6280;SDS011;3173;48.204;11.612;2023-12-07T03:07:28;18.05;;;11.25;;
6280;SDS011;3173;48.204;11.612;2023-12-07T03:09:55;19.73;;;11.27;;
6280;SDS011;3173;48.204;11.612;2023-12-07T03:12:21;18.08;;;11.27;;
6280;SDS011;3173;48.204;11.612;2023-12-07T03:14:48;19.35;;;10.65;;
6280;SDS011;3173;48.204;11.612;2023-12-07T03:17:14;14.65;;;9.63;;
6280;SDS011;3173;48.204;11.612;2023-12-07T03:19:41;19.98;;;11.20;;
6280;SDS011;3173;48.204;11.612;2023-12-07T03:22:07;15.10;;;9.95;;
6280;SDS011;3173;48.204;11.612;2023-12-07T03:24:37;17.55;;;10.90;;
6280;SDS011;3173;48.204;11.612;2023-12-07T03:27:04;15.20;;;10.07;;
6280;SDS011;3173;48.204;11.612;2023-12-07T03:29:31;16.35;;;9.70;;
6280;SDS011;3173;48.204;11.612;2023-12-07T03:31:57;16.00;;;10.00;;
6280;SDS011;3173;48.204;11.612;2023-12-07T03:34:24;14.60;;;9.10;;
6280;SDS011;3173;48.204;11.612;2023-12-07T03:36:50;16.15;;;10.13;;
6280;SDS011;3173;48.204;11.612;2023-12-07T03:39:17;15.57;;;9.60;;
6280;SDS011;3173;48.204;11.612;2023-12-07T03:41:44;14.10;;;8.60;;
6280;SDS011;3173;48.204;11.612;2023-12-07T03:44:10;15.85;;;9.10;;
6280;SDS011;3173;48.204;11.612;2023-12-07T03:46:36;14.75;;;9.20;;
6280;SDS011;3173;48.204;11.612;2023-12-07T03:49:04;13.40;;;8.87;;
6280;SDS011;3173;48.204;11.612;2023-12-07T03:51:30;17.40;;;10.20;;
6280;SDS011;3173;48.204;11.612;2023-12-07T03:53:56;13.10;;;9.25;;
6280;SDS011;3173;48.204;11.612;2023-12-07T03:56:25;15.80;;;9.13;;
6280;SDS011;3173;48.204;11.612;2023-12-07T03:58:52;14.45;;;8.30;;
6280;SDS011;3173;48.204;11.612;2023-12-07T04:01:21;12.88;;;8.45;;
6280;SDS011;3173;48.204;11.612;2023-12-07T04:03:48;13.80;;;8.48;;
6280;SDS011;3173;48.204;11.612;2023-12-07T04:06:14;14.37;;;8.60;;
6280;SDS011;3173;48.204;11.612;2023-12-07T04:08:41;17.55;;;7.85;;
6280;SDS011;3173;48.204;11.612;2023-12-07T04:11:07;14.13;;;8.40;;
6280;SDS011;3173;48.204;11.612;2023-12-07T04:13:34;13.80;;;8.20;;
6280;SDS011;3173;48.204;11.612;2023-12-07T04:16:00;14.70;;;7.72;;
6280;SDS011;3173;48.204;11.612;2023-12-07T04:18:28;13.67;;;8.00;;
6280;SDS011;3173;48.204;11.612;2023-12-07T04:20:54;15.40;;;8.10;;
6280;SDS011;3173;48.204;11.612;2023-12-07T04:23:20;14.45;;;8.85;;
6280;SDS011;3173;48.204;11.612;2023-12-07T04:25:46;13.63;;;8.30;;
6280;SDS011;3173;48.204;11.612;2023-12-07T04:28:12;12.95;;;8.50;;
6280;SDS011;3173;48.204;11.612;2023-12-07T04:30:39;12.73;;;7.93;;
6280;SDS011;3173;48.204;11.612;2023-12-07T04:33:05;12.20;;;8.30;;
6280;SDS011;3173;48.204;11.612;2023-12-07T04:35:31;11.02;;;7.80;;
6280;SDS011;3173;48.204;11.612;2023-12-07T04:37:57;13.68;;;9.00;;
6280;SDS011;3173;48.204;11.612;2023-12-07T04:40:24;15.07;;;8.38;;
6280;SDS011;3173;48.204;11.612;2023-12-07T04:42:50;14.82;;;9.15;;
6280;SDS011;3173;48.204;11.612;2023-12-07T04:45:16;13.73;;;8.75;;
6280;SDS011;3173;48.204;11.612;2023-12-07T04:47:43;15.40;;;8.70;;
6280;SDS011;3173;48.204;11.612;2023-12-07T04:50:10;13.77;;;8.40;;
6280;SDS011;3173;48.204;11.612;2023-12-07T04:52:36;14.82;;;9.00;;
6280;SDS011;3173;48.204;11.612;2023-12-07T04:55:02;16.45;;;9.80;;
6280;SDS011;3173;48.204;11.612;2023-12-07T04:57:28;15.85;;;9.68;;
6280;SDS011;3173;48.204;11.612;2023-12-07T04:59:54;14.93;;;8.82;;
6280;SDS011;3173;48.204;11.612;2023-12-07T05:02:20;15.18;;;7.90;;
6280;SDS011;3173;48.204;11.612;2023-12-07T05:04:46;15.80;;;8.57;;
6280;SDS011;3173;48.204;11.612;2023-12-07T05:07:13;16.02;;;9.23;;
6280;SDS011;3173;48.204;11.612;2023-12-07T05:09:39;17.33;;;9.55;;
6280;SDS011;3173;48.204;11.612;2023-12-07T05:12:08;17.05;;;9.30;;
6280;SDS011;3173;48.204;11.612;2023-12-07T05:14:34;19.60;;;10.00;;
6280;SDS011;3173;48.204;11.612;2023-12-07T05:17:01;17.75;;;8.40;;
6280;SDS011;3173;48.204;11.612;2023-12-07T05:19:27;15.70;;;9.23;;
6280;SDS011;3173;48.204;11.612;2023-12-07T05:21:54;15.23;;;8.55;;
6280;SDS011;3173;48.204;11.612;2023-12-07T05:24:20;13.73;;;8.63;;
6280;SDS011;3173;48.204;11.612;2023-12-07T05:26:46;14.25;;;9.00;;
6280;SDS011;3173;48.204;11.612;2023-12-07T05:29:12;12.05;;;7.72;;
6280;SDS011;3173;48.204;11.612;2023-12-07T05:31:39;14.70;;;8.15;;
6280;SDS011;3173;48.204;11.612;2023-12-07T05:34:05;13.60;;;8.52;;
6280;SDS011;3173;48.204;11.612;2023-12-07T05:36:31;17.05;;;9.10;;
6280;SDS011;3173;48.204;11.612;2023-12-07T05:38:57;15.80;;;8.10;;
6280;SDS011;3173;48.204;11.612;2023-12-07T05:41:24;16.05;;;8.32;;
6280;SDS011;3173;48.204;11.612;2023-12-07T05:43:53;15.85;;;9.10;;
6280;SDS011;3173;48.204;11.612;2023-12-07T05:46:19;16.50;;;8.88;;
6280;SDS011;3173;48.204;11.612;2023-12-07T05:48:45;13.55;;;8.60;;
6280;SDS011;3173;48.204;11.612;2023-12-07T05:51:17;12.85;;;8.18;;
6280;SDS011;3173;48.204;11.612;2023-12-07T05:53:45;15.32;;;8.55;;
6280;SDS011;3173;48.204;11.612;2023-12-07T05:56:11;11.73;;;8.07;;
6280;SDS011;3173;48.204;11.612;2023-12-07T05:58:38;13.32;;;6.90;;
6280;SDS011;3173;48.204;11.612;2023-12-07T06:01:04;12.95;;;7.30;;
6280;SDS011;3173;48.204;11.612;2023-12-07T06:03:30;16.02;;;8.57;;
6280;SDS011;3173;48.204;11.612;2023-12-07T06:05:57;13.27;;;7.50;;
6280;SDS011;3173;48.204;11.612;2023-12-07T06:08:23;15.75;;;8.70;;
6280;SDS011;3173;48.204;11.612;2023-12-07T06:10:49;13.82;;;8.02;;
6280;SDS011;3173;48.204;11.612;2023-12-07T06:13:15;13.00;;;7.88;;
6280;SDS011;3173;48.204;11.612;2023-12-07T06:15:41;15.43;;;9.18;;
6280;SDS011;3173;48.204;11.612;2023-12-07T06:18:08;14.00;;;8.13;;
6280;SDS011;3173;48.204;11.612;2023-12-07T06:20:34;13.70;;;7.93;;
6280;SDS011;3173;48.204;11.612;2023-12-07T06:23:00;14.65;;;7.63;;
6280;SDS011;3173;48.204;11.612;2023-12-07T06:25:27;11.63;;;7.30;;
6280;SDS011;3173;48.204;11.612;2023-12-07T06:27:53;11.82;;;6.95;;
6280;SDS011;3173;48.204;11.612;2023-12-07T06:30:21;13.38;;;7.25;;
6280;SDS011;3173;48.204;11.612;2023-12-07T06:32:47;12.73;;;7.93;;
6280;SDS011;3173;48.204;11.612;2023-12-07T06:35:13;17.02;;;9.30;;
6280;SDS011;3173;48.204;11.612;2023-12-07T06:37:40;22.83;;;12.85;;
6280;SDS011;3173;48.204;11.612;2023-12-07T06:40:08;38.28;;;16.80;;
6280;SDS011;3173;48.204;11.612;2023-12-07T06:42:35;27.20;;;12.15;;
6280;SDS011;3173;48.204;11.612;2023-12-07T06:45:01;18.90;;;9.60;;
6280;SDS011;3173;48.204;11.612;2023-12-07T06:47:28;30.48;;;12.45;;
6280;SDS011;3173;48.204;11.612;2023-12-07T06:49:54;23.23;;;11.45;;
6280;SDS011;3173;48.204;11.612;2023-12-07T06:52:21;12.57;;;7.60;;
6280;SDS011;3173;48.204;11.612;2023-12-07T06:54:47;13.88;;;8.32;;
6280;SDS011;3173;48.204;11.612;2023-12-07T06:57:13;13.70;;;7.28;;
6280;SDS011;3173;48.204;11.612;2023-12-07T06:59:39;13.13;;;6.70;;
6280;SDS011;3173;48.204;11.612;2023-12-07T07:02:06;11.23;;;7.38;;
6280;SDS011;3173;48.204;11.612;2023-12-07T07:04:32;11.15;;;6.82;;
6280;SDS011;3173;48.204;11.612;2023-12-07T07:06:58;13.48;;;7.50;;
6280;SDS011;3173;48.204;11.612;2023-12-07T07:09:24;16.05;;;7.65;;
6280;SDS011;3173;48.204;11.612;2023-12-07T07:11:50;13.50;;;7.80;;
6280;SDS011;3173;48.204;11.612;2023-12-07T07:14:18;12.70;;;7.38;;
6280;SDS011;3173;48.204;11.612;2023-12-07T07:16:44;18.92;;;8.38;;
6280;SDS011;3173;48.204;11.612;2023-12-07T07:19:10;17.98;;;8.50;;
6280;SDS011;3173;48.204;11.612;2023-12-07T07:21:37;13.38;;;6.80;;
6280;SDS011;3173;48.204;11.612;2023-12-07T07:24:03;17.25;;;7.82;;
6280;SDS011;3173;48.204;11.612;2023-12-07T07:26:29;17.40;;;8.60;;
6280;SDS011;3173;48.204;11.612;2023-12-07T07:28:55;12.02;;;7.15;;
6280;SDS011;3173;48.204;11.612;2023-12-07T07:31:21;14.57;;;7.65;;
6280;SDS011;3173;48.204;11.612;2023-12-07T07:33:47;17.20;;;8.05;;
6280;SDS011;3173;48.204;11.612;2023-12-07T07:36:14;20.52;;;9.27;;
6280;SDS011;3173;48.204;11.612;2023-12-07T07:38:40;17.98;;;8.65;;
6280;SDS011;3173;48.204;11.612;2023-12-07T07:41:06;16.05;;;9.07;;
6280;SDS011;3173;48.204;11.612;2023-12-07T07:43:32;18.25;;;8.57;;
6280;SDS011;3173;48.204;11.612;2023-12-07T07:46:02;19.08;;;10.35;;
6280;SDS011;3173;48.204;11.612;2023-12-07T07:48:29;18.80;;;10.23;;
6280;SDS011;3173;48.204;11.612;2023-12-07T07:50:56;14.45;;;8.70;;
6280;SDS011;3173;48.204;11.612;2023-12-07T07:53:23;12.60;;;8.07;;
6280;SDS011;3173;48.204;11.612;2023-12-07T07:55:49;14.63;;;8.27;;
6280;SDS011;3173;48.204;11.612;2023-12-07T07:58:15;12.43;;;7.73;;
6280;SDS011;3173;48.204;11.612;2023-12-07T08:00:41;13.37;;;7.50;;
6280;SDS011;3173;48.204;11.612;2023-12-07T08:03:07;14.30;;;8.60;;
6280;SDS011;3173;48.204;11.612;2023-12-07T08:05:34;18.90;;;9.32;;
6280;SDS011;3173;48.204;11.612;2023-12-07T08:08:00;18.13;;;11.38;;
6280;SDS011;3173;48.204;11.612;2023-12-07T08:10:26;21.48;;;10.07;;
6280;SDS011;3173;48.204;11.612;2023-12-07T08:12:52;16.27;;;10.93;;
6280;SDS011;3173;48.204;11.612;2023-12-07T08:15:19;14.13;;;9.15;;
6280;SDS011;3173;48.204;11.612;2023-12-07T08:17:46;15.85;;;9.07;;
6280;SDS011;3173;48.204;11.612;2023-12-07T08:20:13;13.52;;;8.98;;
6280;SDS011;3173;48.204;11.612;2023-12-07T08:22:39;16.73;;;8.48;;
6280;SDS011;3173;48.204;11.612;2023-12-07T08:25:06;14.05;;;7.85;;
6280;SDS011;3173;48.204;11.612;2023-12-07T08:27:34;16.65;;;9.35;;
6280;SDS011;3173;48.204;11.612;2023-12-07T08:30:00;13.90;;;8.50;;
6280;SDS011;3173;48.204;11.612;2023-12-07T08:32:28;16.20;;;8.80;;
6280;SDS011;3173;48.204;11.612;2023-12-07T08:34:54;16.80;;;9.63;;
6280;SDS011;3173;48.204;11.612;2023-12-07T08:37:20;13.00;;;8.32;;
6280;SDS011;3173;48.204;11.612;2023-12-07T08:39:46;16.40;;;9.00;;
6280;SDS011;3173;48.204;11.612;2023-12-07T08:42:13;16.90;;;9.15;;
6280;SDS011;3173;48.204;11.612;2023-12-07T08:44:39;14.20;;;8.63;;
6280;SDS011;3173;48.204;11.612;2023-12-07T08:47:06;14.67;;;8.53;;
6280;SDS011;3173;48.204;11.612;2023-12-07T08:49:32;15.90;;;8.33;;
6280;SDS011;3173;48.204;11.612;2023-12-07T08:51:58;13.17;;;8.80;;
6280;SDS011;3173;48.204;11.612;2023-12-07T08:54:24;13.40;;;8.90;;
6280;SDS011;3173;48.204;11.612;2023-12-07T08:56:51;18.03;;;10.47;;
6280;SDS011;3173;48.204;11.612;2023-12-07T08:59:17;11.60;;;8.77;;
6280;SDS011;3173;48.204;11.612;2023-12-07T09:01:43;13.37;;;8.70;;
6280;SDS011;3173;48.204;11.612;2023-12-07T09:04:09;11.90;;;8.20;;
6280;SDS011;3173;48.204;11.612;2023-12-07T09:06:36;11.33;;;8.73;;
6280;SDS011;3173;48.204;11.612;2023-12-07T09:09:03;11.73;;;7.60;;
6280;SDS011;3173;48.204;11.612;2023-12-07T09:11:29;11.30;;;7.50;;
6280;SDS011;3173;48.204;11.612;2023-12-07T09:13:56;12.17;;;7.43;;
6280;SDS011;3173;48.204;11.612;2023-12-07T09:16:22;12.17;;;7.30;;
6280;SDS011;3173;48.204;11.612;2023-12-07T09:18:48;15.33;;;7.90;;
6280;SDS011;3173;48.204;11.612;2023-12-07T09:21:15;10.33;;;8.17;;
6280;SDS011;3173;48.204;11.612;2023-12-07T09:23:41;11.80;;;8.37;;
6280;SDS011;3173;48.204;11.612;2023-12-07T09:26:07;11.23;;;8.20;;
6280;SDS011;3173;48.204;11.612;2023-12-07T09:28:34;10.33;;;8.33;;
6280;SDS011;3173;48.204;11.612;2023-12-07T09:31:00;10.20;;;7.90;;
6280;SDS011;3173;48.204;11.612;2023-12-07T09:33:26;10.93;;;8.30;;
6280;SDS011;3173;48.204;11.612;2023-12-07T09:35:52;12.53;;;6.97;;
6280;SDS011;3173;48.204;11.612;2023-12-07T09:38:18;9.20;;;7.70;;
6280;SDS011;3173;48.204;11.612;2023-12-07T09:40:45;12.17;;;8.00;;
6280;SDS011;3173;48.204;11.612;2023-12-07T09:43:12;15.17;;;8.47;;
6280;SDS011;3173;48.204;11.612;2023-12-07T09:45:38;11.33;;;8.07;;
6280;SDS011;3173;48.204;11.612;2023-12-07T09:48:04;18.13;;;7.70;;
6280;SDS011;3173;48.204;11.612;2023-12-07T09:50:31;15.23;;;9.70;;
6280;SDS011;3173;48.204;11.612;2023-12-07T09:52:57;11.30;;;9.07;;
6280;SDS011;3173;48.204;11.612;2023-12-07T09:55:24;11.83;;;8.97;;
6280;SDS011;3173;48.204;11.612;2023-12-07T09:57:50;10.60;;;8.53;;
6280;SDS011;3173;48.204;11.612;2023-12-07T10:00:19;9.33;;;7.40;;
6280;SDS011;3173;48.204;11.612;2023-12-07T10:02:46;13.07;;;8.50;;
6280;SDS011;3173;48.204;11.612;2023-12-07T10:05:13;11.07;;;7.40;;
6280;SDS011;3173;48.204;11.612;2023-12-07T10:07:41;11.30;;;7.80;;
6280;SDS011;3173;48.204;11.612;2023-12-07T10:10:08;9.33;;;7.30;;
6280;SDS011;3173;48.204;11.612;2023-12-07T10:12:38;8.93;;;7.37;;
6280;SDS011;3173;48.204;11.612;2023-12-07T10:15:15;10.30;;;7.10;;
6280;SDS011;3173;48.204;11.612;2023-12-07T10:17:45;10.20;;;7.30;;
6280;SDS011;3173;48.204;11.612;2023-12-07T10:20:18;13.20;;;8.27;;
6280;SDS011;3173;48.204;11.612;2023-12-07T10:22:47;12.50;;;8.20;;
6280;SDS011;3173;48.204;11.612;2023-12-07T10:25:13;10.87;;;7.60;;
6280;SDS011;3173;48.204;11.612;2023-12-07T10:27:42;13.13;;;8.17;;
6280;SDS011;3173;48.204;11.612;2023-12-07T10:30:09;11.30;;;7.10;;
6280;SDS011;3173;48.204;11.612;2023-12-07T10:32:36;8.80;;;7.00;;
6280;SDS011;3173;48.204;11.612;2023-12-07T10:35:04;12.73;;;7.00;;
6280;SDS011;3173;48.204;11.612;2023-12-07T10:37:30;7.70;;;6.70;;
6280;SDS011;3173;48.204;11.612;2023-12-07T10:39:56;11.10;;;7.20;;
6280;SDS011;3173;48.204;11.612;2023-12-07T10:42:23;8.47;;;6.77;;
6280;SDS011;3173;48.204;11.612;2023-12-07T10:44:51;8.00;;;6.13;;
6280;SDS011;3173;48.204;11.612;2023-12-07T10:47:19;7.20;;;5.87;;
6280;SDS011;3173;48.204;11.612;2023-12-07T10:49:45;8.13;;;5.40;;
6280;SDS011;3173;48.204;11.612;2023-12-07T10:52:13;8.83;;;5.80;;
6280;SDS011;3173;48.204;11.612;2023-12-07T10:57:25;9.20;;;6.00;;
6280;SDS011;3173;48.204;11.612;2023-12-07T10:59:52;9.30;;;6.50;;
6280;SDS011;3173;48.204;11.612;2023-12-07T11:02:20;9.00;;;4.90;;
6280;SDS011;3173;48.204;11.612;2023-12-07T11:04:46;8.83;;;5.90;;
6280;SDS011;3173;48.204;11.612;2023-12-07T11:07:14;7.90;;;5.03;;
6280;SDS011;3173;48.204;11.612;2023-12-07T11:09:47;6.80;;;5.13;;
6280;SDS011;3173;48.204;11.612;2023-12-07T11:12:18;10.40;;;6.60;;
6280;SDS011;3173;48.204;11.612;2023-12-07T11:14:46;12.20;;;5.10;;
6280;SDS011;3173;48.204;11.612;2023-12-07T11:17:12;12.13;;;6.07;;
6280;SDS011;3173;48.204;11.612;2023-12-07T11:19:44;10.57;;;6.67;;
6280;SDS011;3173;48.204;11.612;2023-12-07T11:22:11;10.70;;;6.83;;
6280;SDS011;3173;48.204;11.612;2023-12-07T11:24:38;13.50;;;6.53;;
6280;SDS011;3173;48.204;11.612;2023-12-07T11:27:05;9.80;;;6.10;;
6280;SDS011;3173;48.204;11.612;2023-12-07T11:29:31;8.90;;;3.50;;
6280;SDS011;3173;48.204;11.612;2023-12-07T11:32:06;6.00;;;3.60;;
6280;SDS011;3173;48.204;11.612;2023-12-07T11:34:34;3.43;;;2.80;;
6280;SDS011;3173;48.204;11.612;2023-12-07T11:37:01;4.00;;;2.40;;
6280;SDS011;3173;48.204;11.612;2023-12-07T11:39:28;3.50;;;1.87;;
6280;SDS011;3173;48.204;11.612;2023-12-07T11:41:54;4.43;;;2.03;;
6280;SDS011;3173;48.204;11.612;2023-12-07T11:44:24;3.47;;;2.30;;
6280;SDS011;3173;48.204;11.612;2023-12-07T11:46:50;3.67;;;2.17;;
6280;SDS011;3173;48.204;11.612;2023-12-07T11:49:16;3.60;;;2.40;;
6280;SDS011;3173;48.204;11.612;2023-12-07T11:51:42;8.70;;;2.33;;
6280;SDS011;3173;48.204;11.612;2023-12-07T11:54:09;5.53;;;3.40;;
6280;SDS011;3173;48.204;11.612;2023-12-07T11:56:36;5.50;;;2.77;;
6280;SDS011;3173;48.204;11.612;2023-12-07T11:59:02;6.43;;;2.40;;
6280;SDS011;3173;48.204;11.612;2023-12-07T12:01:29;4.77;;;3.10;;
6280;SDS011;3173;48.204;11.612;2023-12-07T12:03:55;4.80;;;2.70;;
6280;SDS011;3173;48.204;11.612;2023-12-07T12:06:23;5.60;;;3.00;;
6280;SDS011;3173;48.204;11.612;2023-12-07T12:08:49;4.30;;;2.83;;
6280;SDS011;3173;48.204;11.612;2023-12-07T12:11:15;9.80;;;2.57;;
6280;SDS011;3173;48.204;11.612;2023-12-07T12:13:41;3.30;;;2.00;;
6280;SDS011;3173;48.204;11.612;2023-12-07T12:16:07;3.83;;;1.90;;
6280;SDS011;3173;48.204;11.612;2023-12-07T12:18:34;3.13;;;2.00;;
6280;SDS011;3173;48.204;11.612;2023-12-07T12:21:00;2.87;;;1.60;;
6280;SDS011;3173;48.204;11.612;2023-12-07T12:23:27;4.60;;;1.97;;
6280;SDS011;3173;48.204;11.612;2023-12-07T12:25:54;4.23;;;2.23;;
6280;SDS011;3173;48.204;11.612;2023-12-07T12:28:20;5.87;;;2.53;;
6280;SDS011;3173;48.204;11.612;2023-12-07T12:30:48;3.50;;;2.00;;
6280;SDS011;3173;48.204;11.612;2023-12-07T12:33:15;3.90;;;2.10;;
6280;SDS011;3173;48.204;11.612;2023-12-07T12:35:42;2.50;;;1.53;;
6280;SDS011;3173;48.204;11.612;2023-12-07T12:38:12;2.70;;;2.07;;
6280;SDS011;3173;48.204;11.612;2023-12-07T12:40:39;4.43;;;1.83;;
6280;SDS011;3173;48.204;11.612;2023-12-07T12:43:06;4.17;;;2.47;;
6280;SDS011;3173;48.204;11.612;2023-12-07T12:45:33;3.90;;;2.67;;
6280;SDS011;3173;48.204;11.612;2023-12-07T12:47:59;5.00;;;2.13;;
6280;SDS011;3173;48.204;11.612;2023-12-07T12:50:32;3.40;;;2.40;;
6280;SDS011;3173;48.204;11.612;2023-12-07T12:52:59;7.70;;;2.30;;
6280;SDS011;3173;48.204;11.612;2023-12-07T12:55:26;5.23;;;2.70;;
6280;SDS011;3173;48.204;11.612;2023-12-07T12:57:54;6.83;;;3.30;;
6280;SDS011;3173;48.204;11.612;2023-12-07T13:00:21;7.60;;;2.73;;
6280;SDS011;3173;48.204;11.612;2023-12-07T13:02:47;6.00;;;3.20;;
6280;SDS011;3173;48.204;11.612;2023-12-07T13:05:14;4.03;;;2.57;;
6280;SDS011;3173;48.204;11.612;2023-12-07T13:07:40;7.10;;;3.20;;
6280;SDS011;3173;48.204;11.612;2023-12-07T13:10:06;6.00;;;3.37;;
6280;SDS011;3173;48.204;11.612;2023-12-07T13:12:33;5.67;;;3.07;;
6280;SDS011;3173;48.204;11.612;2023-12-07T13:15:00;8.27;;;3.40;;
6280;SDS011;3173;48.204;11.612;2023-12-07T13:17:26;4.57;;;2.40;;
6280;SDS011;3173;48.204;11.612;2023-12-07T13:19:52;4.00;;;2.10;;
6280;SDS011;3173;48.204;11.612;2023-12-07T13:22:19;4.30;;;2.47;;
6280;SDS011;3173;48.204;11.612;2023-12-07T13:24:47;3.60;;;2.10;;
6280;SDS011;3173;48.204;11.612;2023-12-07T13:27:14;3.83;;;2.47;;
6280;SDS011;3173;48.204;11.612;2023-12-07T13:29:41;6.13;;;2.60;;
6280;SDS011;3173;48.204;11.612;2023-12-07T13:32:07;3.50;;;2.33;;
6280;SDS011;3173;48.204;11.612;2023-12-07T13:34:35;5.47;;;2.67;;
6280;SDS011;3173;48.204;11.612;2023-12-07T13:37:01;4.50;;;2.20;;
6280;SDS011;3173;48.204;11.612;2023-12-07T13:39:27;4.80;;;2.50;;
6280;SDS011;3173;48.204;11.612;2023-12-07T13:41:55;6.07;;;2.63;;
6280;SDS011;3173;48.204;11.612;2023-12-07T13:44:21;5.90;;;2.83;;
6280;SDS011;3173;48.204;11.612;2023-12-07T13:46:49;6.30;;;3.10;;
6280;SDS011;3173;48.204;11.612;2023-12-07T13:49:15;6.00;;;3.70;;
6280;SDS011;3173;48.204;11.612;2023-12-07T13:51:41;6.80;;;3.77;;
6280;SDS011;3173;48.204;11.612;2023-12-07T13:54:08;6.33;;;4.10;;
6280;SDS011;3173;48.204;11.612;2023-12-07T13:56:34;7.73;;;4.30;;
6280;SDS011;3173;48.204;11.612;2023-12-07T13:59:01;9.23;;;4.63;;
6280;SDS011;3173;48.204;11.612;2023-12-07T14:01:27;7.70;;;5.20;;
6280;SDS011;3173;48.204;11.612;2023-12-07T14:03:53;8.00;;;5.20;;
6280;SDS011;3173;48.204;11.612;2023-12-07T14:06:24;9.03;;;5.60;;
6280;SDS011;3173;48.204;11.612;2023-12-07T14:08:50;8.90;;;5.50;;
6280;SDS011;3173;48.204;11.612;2023-12-07T14:11:19;8.10;;;5.83;;
6280;SDS011;3173;48.204;11.612;2023-12-07T14:13:45;10.87;;;5.80;;
6280;SDS011;3173;48.204;11.612;2023-12-07T14:16:12;8.10;;;5.10;;
6280;SDS011;3173;48.204;11.612;2023-12-07T14:18:39;9.30;;;5.30;;
6280;SDS011;3173;48.204;11.612;2023-12-07T14:21:05;7.97;;;5.70;;
6280;SDS011;3173;48.204;11.612;2023-12-07T14:23:31;8.33;;;4.83;;
6280;SDS011;3173;48.204;11.612;2023-12-07T14:25:57;8.50;;;5.10;;
6280;SDS011;3173;48.204;11.612;2023-12-07T14:28:24;8.70;;;4.90;;
6280;SDS011;3173;48.204;11.612;2023-12-07T14:30:53;10.93;;;5.87;;
6280;SDS011;3173;48.204;11.612;2023-12-07T14:33:21;9.17;;;4.60;;
6280;SDS011;3173;48.204;11.612;2023-12-07T14:35:47;8.07;;;4.97;;
6280;SDS011;3173;48.204;11.612;2023-12-07T14:38:14;8.33;;;5.37;;
6280;SDS011;3173;48.204;11.612;2023-12-07T14:40:40;9.80;;;6.03;;
6280;SDS011;3173;48.204;11.612;2023-12-07T14:43:06;13.37;;;7.33;;
6280;SDS011;3173;48.204;11.612;2023-12-07T14:45:33;15.43;;;7.37;;
6280;SDS011;3173;48.204;11.612;2023-12-07T14:47:59;12.27;;;7.73;;
6280;SDS011;3173;48.204;11.612;2023-12-07T14:50:25;11.30;;;7.50;;
6280;SDS011;3173;48.204;11.612;2023-12-07T14:52:51;10.50;;;7.60;;